createdAt,value
2019-02-23T00:00:02.857Z,19.20
2019-02-23T00:02:31.271Z,19.22
2019-02-23T00:07:53.192Z,19.24
2019-02-23T00:10:21.683Z,19.26
2019-02-23T00:12:50.089Z,19.26
2019-02-23T00:15:18.535Z,19.25
2019-02-23T00:17:46.937Z,19.24
2019-02-23T00:20:15.493Z,19.22
2019-02-23T00:22:43.910Z,19.19
2019-02-23T00:25:12.351Z,19.18
2019-02-23T00:27:40.748Z,19.15
2019-02-23T00:30:09.148Z,19.14
2019-02-23T00:32:37.571Z,19.10
2019-02-23T00:35:05.971Z,19.09
2019-02-23T00:37:34.376Z,19.07
2019-02-23T00:40:02.769Z,19.05
2019-02-23T00:42:31.163Z,19.05
2019-02-23T00:44:59.553Z,19.03
2019-02-23T00:47:27.946Z,19.03
2019-02-23T00:49:56.342Z,19.01
2019-02-23T00:52:24.732Z,19.01
2019-02-23T00:54:53.141Z,19.00
2019-02-23T00:57:21.563Z,19.00
2019-02-23T00:59:49.966Z,18.98
2019-02-23T01:02:18.359Z,18.99
2019-02-23T01:04:46.778Z,18.99
2019-02-23T01:07:15.175Z,18.99
2019-02-23T01:09:43.612Z,18.98
2019-02-23T01:12:12.075Z,18.98
2019-02-23T01:14:40.498Z,18.97
2019-02-23T01:17:08.884Z,18.97
2019-02-23T01:19:47.420Z,18.97
2019-02-23T01:22:07.418Z,18.98
2019-02-23T01:24:35.889Z,18.98
2019-02-23T01:27:04.278Z,18.97
2019-02-23T01:29:32.732Z,18.97
2019-02-23T01:32:01.146Z,18.97
2019-02-23T01:34:29.564Z,18.97
2019-02-23T01:36:57.950Z,18.98
2019-02-23T01:39:26.467Z,18.97
2019-02-23T01:41:54.858Z,18.98
2019-02-23T01:44:23.281Z,18.98
2019-02-23T01:46:51.737Z,18.98
2019-02-23T01:49:20.150Z,18.98
2019-02-23T01:51:48.538Z,18.98
2019-02-23T01:54:16.978Z,18.98
2019-02-23T01:56:45.377Z,19.00
2019-02-23T01:59:13.896Z,18.98
2019-02-23T02:01:42.290Z,18.99
2019-02-23T02:04:10.715Z,18.99
2019-02-23T02:06:39.135Z,18.99
2019-02-23T02:09:07.932Z,19.00
2019-02-23T02:11:36.321Z,18.99
2019-02-23T02:14:04.812Z,18.99
2019-02-23T02:16:33.207Z,19.00
2019-02-23T02:19:01.607Z,19.00
2019-02-23T02:21:29.999Z,19.01
2019-02-23T02:23:58.389Z,19.01
2019-02-23T02:26:26.775Z,19.00
2019-02-23T02:28:55.172Z,19.01
2019-02-23T02:31:23.575Z,19.01
2019-02-23T02:34:09.154Z,19.03
2019-02-23T02:36:37.549Z,19.03
2019-02-23T02:39:08.645Z,19.04
2019-02-23T02:41:37.043Z,19.02
2019-02-23T02:44:05.433Z,19.03
2019-02-23T02:46:33.894Z,19.03
2019-02-23T02:49:02.281Z,19.02
2019-02-23T02:51:30.683Z,19.02
2019-02-23T02:53:59.071Z,19.04
2019-02-23T02:56:27.472Z,19.03
2019-02-23T02:58:55.859Z,19.03
2019-02-23T03:01:24.259Z,19.04
2019-02-23T03:03:52.650Z,18.96
2019-02-23T03:06:21.035Z,19.02
2019-02-23T03:08:49.428Z,19.03
2019-02-23T03:11:17.872Z,19.03
2019-02-23T03:13:46.267Z,18.99
2019-02-23T03:16:14.669Z,19.02
2019-02-23T03:18:43.066Z,19.04
2019-02-23T03:21:11.460Z,19.03
2019-02-23T03:23:39.847Z,19.04
2019-02-23T03:26:08.310Z,19.05
2019-02-23T03:28:36.711Z,19.04
2019-02-23T03:31:05.130Z,19.04
2019-02-23T03:33:33.521Z,19.04
2019-02-23T03:36:02.069Z,19.05
2019-02-23T03:38:30.530Z,19.03
2019-02-23T03:40:58.928Z,19.05
2019-02-23T03:43:27.354Z,19.04
2019-02-23T03:45:55.777Z,19.05
2019-02-23T03:48:24.535Z,19.03
2019-02-23T03:50:52.924Z,19.05
2019-02-23T03:53:21.338Z,19.04
2019-02-23T03:55:49.800Z,19.05
2019-02-23T03:58:18.186Z,19.04
2019-02-23T04:00:46.605Z,19.04
2019-02-23T04:03:14.989Z,19.03
2019-02-23T04:05:43.416Z,19.03
2019-02-23T04:08:11.869Z,19.02
2019-02-23T04:10:40.307Z,19.04
2019-02-23T04:13:08.708Z,19.04
2019-02-23T04:15:37.405Z,19.03
2019-02-23T04:18:05.907Z,19.04
2019-02-23T04:20:34.332Z,19.02
2019-02-23T04:23:02.728Z,19.03
2019-02-23T04:25:31.160Z,19.04
2019-02-23T04:27:59.548Z,19.03
2019-02-23T04:30:27.996Z,19.04
2019-02-23T04:32:56.393Z,19.03
2019-02-23T04:35:24.830Z,19.03
2019-02-23T04:37:53.219Z,19.04
2019-02-23T04:40:21.693Z,19.03
2019-02-23T04:42:50.092Z,19.02
2019-02-23T04:45:18.517Z,19.02
2019-02-23T04:47:47.078Z,19.03
2019-02-23T04:50:15.495Z,19.04
2019-02-23T04:52:43.952Z,19.04
2019-02-23T04:55:12.418Z,19.03
2019-02-23T04:57:40.806Z,19.04
2019-02-23T05:00:12.655Z,19.03
2019-02-23T05:02:41.199Z,19.03
2019-02-23T05:05:09.978Z,19.02
2019-02-23T05:07:38.371Z,19.01
2019-02-23T05:10:08.441Z,19.01
2019-02-23T05:12:36.862Z,19.01
2019-02-23T05:15:07.530Z,19.01
2019-02-23T05:17:35.918Z,19.00
2019-02-23T05:20:05.070Z,19.00
2019-02-23T05:22:33.463Z,19.00
2019-02-23T05:25:01.861Z,19.00
2019-02-23T05:27:30.249Z,19.01
2019-02-23T05:29:58.640Z,18.99
2019-02-23T05:32:27.036Z,18.99
2019-02-23T05:34:55.417Z,18.99
2019-02-23T05:37:23.972Z,19.00
2019-02-23T05:39:52.369Z,19.00
2019-02-23T05:42:20.773Z,19.00
2019-02-23T05:44:49.166Z,19.00
2019-02-23T05:47:17.567Z,19.00
2019-02-23T05:49:45.964Z,18.99
2019-02-23T05:52:14.358Z,18.99
2019-02-23T05:54:42.774Z,19.00
2019-02-23T05:57:11.168Z,19.01
2019-02-23T05:59:39.558Z,19.02
2019-02-23T06:02:07.950Z,19.02
2019-02-23T06:04:36.338Z,19.02
2019-02-23T06:07:04.803Z,19.02
2019-02-23T06:09:33.192Z,19.03
2019-02-23T06:12:01.606Z,19.04
2019-02-23T06:14:30.016Z,19.03
2019-02-23T06:16:58.383Z,19.03
2019-02-23T06:19:26.781Z,19.04
2019-02-23T06:21:55.180Z,19.05
2019-02-23T06:24:23.572Z,19.05
2019-02-23T06:26:51.988Z,19.04
2019-02-23T06:29:20.381Z,19.06
2019-02-23T06:31:48.780Z,19.06
2019-02-23T06:34:17.240Z,19.07
2019-02-23T06:36:45.599Z,19.07
2019-02-23T06:39:14.061Z,19.08
2019-02-23T06:41:42.456Z,19.07
2019-02-23T06:44:10.855Z,19.10
2019-02-23T06:46:39.255Z,19.10
2019-02-23T06:49:07.639Z,19.11
2019-02-23T06:51:36.070Z,19.12
2019-02-23T06:54:05.448Z,19.17
2019-02-23T06:56:33.930Z,19.18
2019-02-23T06:59:02.370Z,19.21
2019-02-23T07:01:30.790Z,19.22
2019-02-23T07:03:59.224Z,19.26
2019-02-23T07:06:27.659Z,19.30
2019-02-23T07:08:56.054Z,19.33
2019-02-23T07:11:24.485Z,19.35
2019-02-23T07:13:52.892Z,19.37
2019-02-23T07:16:21.284Z,19.41
2019-02-23T07:18:49.680Z,19.45
2019-02-23T07:21:18.111Z,19.47
2019-02-23T07:23:46.529Z,19.51
2019-02-23T07:26:14.971Z,19.54
2019-02-23T07:28:43.363Z,19.56
2019-02-23T07:31:11.791Z,19.59
2019-02-23T07:33:40.194Z,19.62
2019-02-23T07:36:08.684Z,19.66
2019-02-23T07:38:37.078Z,19.69
2019-02-23T07:41:05.509Z,19.72
2019-02-23T07:43:34.005Z,19.76
2019-02-23T07:46:02.426Z,19.80
2019-02-23T07:48:30.822Z,19.84
2019-02-23T07:50:59.215Z,19.89
2019-02-23T07:53:27.619Z,19.92
2019-02-23T07:55:56.096Z,19.99
2019-02-23T07:58:24.488Z,20.04
2019-02-23T08:00:52.878Z,20.11
2019-02-23T08:03:21.271Z,20.17
2019-02-23T08:05:49.663Z,20.24
2019-02-23T08:08:18.057Z,20.30
2019-02-23T08:10:46.447Z,20.37
2019-02-23T08:13:14.843Z,20.44
2019-02-23T08:15:43.239Z,20.52
2019-02-23T08:18:12.330Z,20.56
2019-02-23T08:20:40.730Z,20.63
2019-02-23T08:23:09.161Z,20.70
2019-02-23T08:25:37.567Z,20.77
2019-02-23T08:28:06.160Z,20.83
2019-02-23T08:30:34.555Z,20.92
2019-02-23T08:33:03.045Z,20.98
2019-02-23T08:35:31.445Z,21.03
2019-02-23T08:37:59.905Z,21.10
2019-02-23T08:40:28.303Z,21.15
2019-02-23T08:42:56.698Z,21.21
2019-02-23T08:45:25.105Z,21.27
2019-02-23T08:47:53.522Z,21.33
2019-02-23T08:50:22.101Z,21.38
2019-02-23T08:52:50.583Z,21.43
2019-02-23T08:55:19.093Z,21.49
2019-02-23T08:57:47.505Z,21.54
2019-02-23T09:00:19.453Z,21.60
2019-02-23T09:02:47.889Z,21.68
2019-02-23T09:05:16.284Z,21.83
2019-02-23T09:07:46.282Z,21.91
2019-02-23T09:10:15.214Z,22.04
2019-02-23T09:12:43.613Z,22.15
2019-02-23T09:15:12.278Z,22.22
2019-02-23T09:17:40.682Z,22.32
2019-02-23T09:20:13.237Z,22.39
2019-02-23T09:22:41.638Z,22.46
2019-02-23T09:25:11.183Z,22.54
2019-02-23T09:27:39.588Z,22.60
2019-02-23T09:30:12.643Z,22.70
2019-02-23T09:32:41.048Z,22.76
2019-02-23T09:35:11.152Z,22.86
2019-02-23T09:37:41.194Z,22.91
2019-02-23T09:40:20.461Z,22.99
2019-02-23T09:42:48.863Z,23.09
2019-02-23T09:45:17.272Z,23.19
2019-02-23T09:47:45.698Z,23.27
2019-02-23T09:50:14.101Z,23.36
2019-02-23T09:52:42.508Z,23.38
2019-02-23T09:55:10.911Z,23.50
2019-02-23T09:57:39.335Z,23.58
2019-02-23T10:00:12.727Z,23.67
2019-02-23T10:02:41.163Z,23.76
2019-02-23T10:05:09.978Z,23.85
2019-02-23T10:07:38.409Z,23.91
2019-02-23T10:10:09.534Z,23.99
2019-02-23T10:12:38.010Z,24.03
2019-02-23T10:15:08.649Z,24.12
2019-02-23T10:17:37.075Z,24.24
2019-02-23T10:20:14.077Z,24.34
2019-02-23T10:22:42.486Z,24.38
2019-02-23T10:25:10.878Z,24.49
2019-02-23T10:27:39.312Z,24.55
2019-02-23T10:30:13.672Z,24.56
2019-02-23T10:32:42.090Z,24.61
2019-02-23T10:35:12.119Z,24.68
2019-02-23T10:37:40.645Z,24.76
2019-02-23T10:40:11.232Z,24.87
2019-02-23T10:42:39.658Z,24.97
2019-02-23T10:45:12.786Z,25.07
2019-02-23T10:47:41.222Z,25.19
2019-02-23T10:50:17.001Z,25.29
2019-02-23T10:52:45.386Z,25.39
2019-02-23T10:55:14.918Z,25.47
2019-02-23T10:57:43.319Z,25.56
2019-02-23T11:00:18.594Z,25.64
2019-02-23T11:02:47.061Z,25.74
2019-02-23T11:05:15.792Z,25.82
2019-02-23T11:07:45.493Z,25.91
2019-02-23T11:10:13.951Z,26.01
2019-02-23T11:12:42.382Z,26.11
2019-02-23T11:15:12.910Z,26.25
2019-02-23T11:17:41.341Z,26.37
2019-02-23T11:20:10.887Z,26.50
2019-02-23T11:22:39.350Z,26.65
2019-02-23T11:25:10.174Z,26.78
2019-02-23T11:27:38.596Z,26.95
2019-02-23T11:30:10.345Z,27.12
2019-02-23T11:32:38.773Z,27.29
2019-02-23T11:35:09.140Z,27.47
2019-02-23T11:37:37.555Z,27.64
2019-02-23T11:40:11.125Z,27.86
2019-02-23T11:42:41.121Z,28.10
2019-02-23T11:45:10.856Z,28.34
2019-02-23T11:47:39.295Z,28.58
2019-02-23T11:50:11.679Z,28.78
2019-02-23T11:52:40.091Z,28.81
2019-02-23T11:55:08.494Z,28.83
2019-02-23T11:57:36.976Z,28.98
2019-02-23T12:00:08.269Z,29.17
2019-02-23T12:02:36.687Z,29.37
2019-02-23T12:05:05.151Z,29.56
2019-02-23T12:07:33.589Z,29.72
2019-02-23T12:10:01.989Z,29.87
2019-02-23T12:12:30.407Z,29.98
2019-02-23T12:14:58.788Z,30.14
2019-02-23T12:17:27.180Z,30.24
2019-02-23T12:19:55.593Z,30.35
2019-02-23T12:22:24.024Z,30.45
2019-02-23T12:24:52.418Z,30.54
2019-02-23T12:27:20.810Z,30.58
2019-02-23T12:29:49.213Z,30.58
2019-02-23T12:32:17.610Z,30.60
2019-02-23T12:34:46.007Z,30.68
2019-02-23T12:37:14.408Z,30.72
2019-02-23T12:39:43.880Z,30.77
2019-02-23T12:42:12.273Z,30.84
2019-02-23T12:44:40.793Z,30.96
2019-02-23T12:47:09.208Z,31.08
2019-02-23T12:49:37.644Z,31.18
2019-02-23T12:52:06.038Z,31.30
2019-02-23T12:54:34.451Z,31.37
2019-02-23T12:57:02.853Z,31.44
2019-02-23T12:59:31.274Z,31.59
2019-02-23T13:01:59.663Z,31.66
2019-02-23T13:04:28.070Z,31.75
2019-02-23T13:06:56.497Z,31.90
2019-02-23T13:09:27.401Z,31.98
2019-02-23T13:12:23.243Z,32.08
2019-02-23T13:15:03.926Z,32.13
2019-02-23T13:17:38.843Z,32.16
2019-02-23T13:20:22.505Z,32.12
2019-02-23T13:23:06.219Z,32.10
2019-02-23T13:25:55.782Z,32.08
2019-02-23T13:28:45.471Z,32.04
2019-02-23T13:31:23.319Z,31.91
2019-02-23T13:34:00.834Z,31.81
2019-02-23T13:36:38.712Z,31.73
2019-02-23T13:39:28.636Z,31.58
2019-02-23T13:42:21.402Z,31.54
2019-02-23T13:45:09.948Z,31.44
2019-02-23T13:47:59.747Z,31.43
2019-02-23T13:50:34.463Z,31.44
2019-02-23T13:53:15.132Z,31.41
2019-02-23T13:55:49.480Z,31.37
2019-02-23T13:58:24.153Z,31.32
2019-02-23T14:01:04.585Z,31.29
2019-02-23T14:03:57.717Z,31.19
2019-02-23T14:06:38.386Z,31.07
2019-02-23T14:09:42.033Z,30.78
2019-02-23T14:12:13.712Z,30.57
2019-02-23T14:15:03.395Z,30.34
2019-02-23T14:17:37.943Z,30.21
2019-02-23T14:20:24.557Z,30.02
2019-02-23T14:23:08.392Z,29.85
2019-02-23T14:25:45.810Z,29.65
2019-02-23T14:28:17.496Z,29.40
2019-02-23T14:31:01.268Z,29.14
2019-02-23T14:34:01.807Z,28.86
2019-02-23T14:37:08.332Z,28.57
2019-02-23T14:39:58.193Z,28.26
2019-02-23T14:43:01.715Z,25.48
2019-02-23T14:46:00.491Z,24.11
2019-02-23T14:48:57.940Z,23.43
2019-02-23T14:51:51.909Z,23.69
2019-02-23T14:54:26.760Z,23.72
2019-02-23T14:57:19.816Z,23.81
2019-02-23T15:00:03.548Z,23.95
2019-02-23T15:02:43.869Z,24.14
2019-02-23T15:05:27.480Z,24.29
2019-02-23T15:07:59.132Z,24.45
2019-02-23T15:10:53.160Z,24.59
2019-02-23T15:13:47.569Z,24.69
2019-02-23T15:16:31.027Z,24.75
2019-02-23T15:19:36.178Z,24.77
2019-02-23T15:22:17.053Z,24.77
2019-02-23T15:25:23.546Z,24.74
2019-02-23T15:28:30.322Z,24.70
2019-02-23T15:30:59.077Z,24.66
2019-02-23T15:33:51.905Z,24.56
2019-02-23T15:36:29.637Z,24.52
2019-02-23T15:39:27.221Z,24.47
2019-02-23T15:42:24.113Z,24.39
2019-02-23T15:45:01.333Z,24.33
2019-02-23T15:47:58.968Z,24.24
2019-02-23T15:50:27.461Z,24.21
2019-02-23T15:52:55.944Z,24.13
2019-02-23T15:55:26.523Z,24.09
2019-02-23T15:57:54.642Z,24.02
2019-02-23T16:00:23.163Z,23.98
2019-02-23T16:02:51.557Z,23.92
2019-02-23T16:05:21.674Z,23.86
2019-02-23T16:07:50.091Z,23.83
2019-02-23T16:10:18.488Z,23.77
2019-02-23T16:12:46.872Z,23.75
2019-02-23T16:15:15.270Z,23.71
2019-02-23T16:17:43.684Z,23.66
2019-02-23T16:20:12.069Z,23.61
2019-02-23T16:22:40.278Z,23.56
2019-02-23T16:25:08.679Z,23.50
2019-02-23T16:27:37.146Z,23.48
2019-02-23T16:30:08.450Z,23.42
2019-02-23T16:32:36.845Z,23.38
2019-02-23T16:35:07.059Z,23.33
2019-02-23T16:37:35.470Z,23.30
2019-02-23T16:40:03.948Z,23.25
2019-02-23T16:42:32.346Z,23.21
2019-02-23T16:45:00.751Z,23.17
2019-02-23T16:47:30.723Z,23.13
2019-02-23T16:49:59.237Z,23.06
2019-02-23T16:52:27.645Z,23.06
2019-02-23T16:54:56.096Z,23.02
2019-02-23T16:57:24.534Z,22.99
2019-02-23T16:59:53.056Z,22.96
2019-02-23T17:02:21.471Z,22.92
2019-02-23T17:04:54.053Z,22.89
2019-02-23T17:07:21.359Z,22.87
2019-02-23T17:09:49.786Z,22.85
2019-02-23T17:12:18.185Z,22.80
2019-02-23T17:14:46.624Z,22.77
2019-02-23T17:17:15.053Z,22.73
2019-02-23T17:19:43.470Z,22.71
2019-02-23T17:25:07.642Z,22.68
2019-02-23T17:27:36.662Z,22.65
2019-02-23T17:30:07.260Z,22.62
2019-02-23T17:32:35.739Z,22.60
2019-02-23T17:35:05.496Z,22.58
2019-02-23T17:37:33.898Z,22.58
2019-02-23T17:40:02.343Z,22.56
2019-02-23T17:42:30.807Z,22.56
2019-02-23T17:44:59.225Z,22.54
2019-02-23T17:47:27.708Z,22.54
2019-02-23T17:49:56.284Z,22.49
2019-02-23T17:52:24.817Z,22.50
2019-02-23T17:54:54.486Z,22.49
2019-02-23T17:57:22.923Z,22.46
2019-02-23T17:59:52.388Z,22.44
2019-02-23T18:02:20.796Z,22.44
2019-02-23T18:04:49.263Z,22.42
2019-02-23T18:07:17.664Z,22.41
2019-02-23T18:09:46.099Z,22.38
2019-02-23T18:12:14.595Z,22.37
2019-02-23T18:14:43.057Z,22.33
2019-02-23T18:17:11.447Z,22.33
2019-02-23T18:19:39.847Z,22.31
2019-02-23T18:22:08.414Z,22.27
2019-02-23T18:24:36.971Z,22.25
2019-02-23T18:27:08.511Z,22.24
2019-02-23T18:29:37.455Z,22.21
2019-02-23T18:32:06.115Z,22.21
2019-02-23T18:34:34.535Z,22.18
2019-02-23T18:37:04.030Z,22.18
2019-02-23T18:39:32.607Z,22.15
2019-02-23T18:42:01.132Z,22.14
2019-02-23T18:44:29.608Z,22.12
2019-02-23T18:46:58.051Z,22.10
2019-02-23T18:49:26.493Z,22.09
2019-02-23T18:51:55.048Z,22.07
2019-02-23T18:54:23.469Z,22.06
2019-02-23T18:56:51.907Z,22.04
2019-02-23T18:59:20.307Z,22.03
2019-02-23T19:01:48.760Z,21.99
2019-02-23T19:04:17.155Z,21.99
2019-02-23T19:06:45.567Z,21.96
2019-02-23T19:09:13.964Z,21.97
2019-02-23T19:11:42.371Z,21.94
2019-02-23T19:14:10.761Z,21.93
2019-02-23T19:16:39.347Z,21.91
2019-02-23T19:19:07.794Z,21.89
2019-02-23T19:21:36.271Z,21.89
2019-02-23T19:24:04.676Z,21.88
2019-02-23T19:26:38.242Z,21.85
2019-02-23T19:29:03.288Z,21.84
2019-02-23T19:31:31.703Z,21.84
2019-02-23T19:34:00.109Z,21.83
2019-02-23T19:36:28.624Z,21.83
2019-02-23T19:38:57.211Z,21.81
2019-02-23T19:41:25.610Z,21.81
2019-02-23T19:43:54.017Z,21.80
2019-02-23T19:46:22.782Z,21.79
2019-02-23T19:48:51.196Z,21.77
2019-02-23T19:51:19.595Z,21.78
2019-02-23T19:53:48.511Z,21.76
2019-02-23T19:56:16.910Z,21.77
2019-02-23T19:58:45.312Z,21.76
2019-02-23T20:01:13.726Z,21.76
2019-02-23T20:03:42.200Z,21.75
2019-02-23T20:06:11.196Z,21.73
2019-02-23T20:08:39.594Z,21.76
2019-02-23T20:11:08.126Z,21.77
2019-02-23T20:13:36.513Z,21.75
2019-02-23T20:16:04.951Z,21.72
2019-02-23T20:18:33.353Z,21.71
2019-02-23T20:21:01.798Z,21.72
2019-02-23T20:23:30.194Z,21.71
2019-02-23T20:25:58.635Z,21.71
2019-02-23T20:28:27.114Z,21.69
2019-02-23T20:30:56.605Z,21.69
2019-02-23T20:35:59.607Z,21.78
2019-02-23T20:38:28.003Z,21.62
2019-02-23T20:40:56.448Z,21.60
2019-02-23T20:43:24.847Z,21.57
2019-02-23T20:45:53.268Z,21.54
2019-02-23T20:48:21.686Z,21.50
2019-02-23T20:50:50.093Z,21.48
2019-02-23T20:53:18.504Z,21.46
2019-02-23T20:55:46.905Z,21.41
2019-02-23T20:58:15.309Z,21.39
2019-02-23T21:00:43.718Z,21.39
2019-02-23T21:03:12.115Z,21.35
2019-02-23T21:05:40.519Z,21.35
2019-02-23T21:08:08.995Z,21.32
2019-02-23T21:10:37.480Z,21.29
2019-02-23T21:13:05.885Z,21.28
2019-02-23T21:15:34.291Z,21.27
2019-02-23T21:18:02.692Z,21.24
2019-02-23T21:20:31.129Z,21.22
2019-02-23T21:22:59.541Z,21.20
2019-02-23T21:25:27.940Z,21.18
2019-02-23T21:27:56.410Z,21.18
2019-02-23T21:30:24.891Z,21.17
2019-02-23T21:32:53.336Z,21.15
2019-02-23T21:35:21.762Z,21.13
2019-02-23T21:37:50.195Z,21.11
2019-02-23T21:40:18.592Z,21.09
2019-02-23T21:42:47.028Z,21.09
2019-02-23T21:45:15.448Z,21.08
2019-02-23T21:47:43.869Z,21.06
2019-02-23T21:50:12.274Z,21.05
2019-02-23T21:52:40.814Z,21.03
2019-02-23T21:55:09.284Z,20.99
2019-02-23T21:57:37.716Z,20.98
2019-02-23T22:00:08.374Z,20.97
2019-02-23T22:02:36.791Z,20.97
2019-02-23T22:05:11.984Z,20.93
2019-02-23T22:07:36.150Z,20.93
2019-02-23T22:10:07.433Z,20.90
2019-02-23T22:12:35.866Z,20.89
2019-02-23T22:15:05.510Z,20.89
2019-02-23T22:17:33.911Z,20.87
2019-02-23T22:20:02.317Z,20.86
2019-02-23T22:22:30.743Z,20.85
2019-02-23T22:25:01.900Z,20.84
2019-02-23T22:27:31.560Z,20.84
2019-02-23T22:30:00.494Z,20.82
2019-02-23T22:32:29.024Z,20.81
2019-02-23T22:34:57.482Z,20.82
2019-02-23T22:37:26.027Z,20.80
2019-02-23T22:39:54.432Z,20.80
2019-02-23T22:42:22.826Z,20.80
2019-02-23T22:44:51.301Z,20.79
2019-02-23T22:47:19.706Z,20.78
2019-02-23T22:49:48.097Z,20.76
2019-02-23T22:52:16.505Z,20.74
2019-02-23T22:54:44.937Z,20.75
2019-02-23T22:57:13.378Z,20.75
2019-02-23T22:59:41.778Z,20.72
2019-02-23T23:02:10.217Z,20.74
2019-02-23T23:04:38.688Z,20.72
2019-02-23T23:07:07.109Z,20.70
2019-02-23T23:09:35.510Z,20.69
2019-02-23T23:12:04.246Z,20.68
2019-02-23T23:14:32.649Z,20.69
2019-02-23T23:17:01.241Z,20.69
2019-02-23T23:19:29.644Z,20.66
2019-02-23T23:21:58.058Z,20.65
2019-02-23T23:24:26.461Z,20.67
2019-02-23T23:26:54.890Z,20.66
2019-02-23T23:29:23.290Z,20.65
2019-02-23T23:31:51.691Z,20.65
2019-02-23T23:34:20.100Z,20.63
2019-02-23T23:36:48.500Z,20.63
2019-02-23T23:39:16.907Z,20.64
2019-02-23T23:41:45.316Z,20.63
2019-02-23T23:44:13.800Z,20.62
2019-02-23T23:46:42.269Z,20.59
2019-02-23T23:49:10.682Z,20.61
2019-02-23T23:51:39.087Z,20.59
2019-02-23T23:54:07.488Z,20.59
2019-02-23T23:56:35.892Z,20.60
2019-02-23T23:59:04.300Z,20.58
